createdAt,value
2022-09-10T00:02:07.415Z,1.50
2022-09-10T00:04:34.361Z,1.30
2022-09-10T00:07:01.167Z,1.57
2022-09-10T00:09:27.813Z,1.37
2022-09-10T00:11:54.834Z,1.30
2022-09-10T00:14:23.459Z,1.00
2022-09-10T00:16:50.325Z,1.33
2022-09-10T00:19:17.443Z,1.47
2022-09-10T00:21:44.702Z,2.10
2022-09-10T00:24:11.434Z,1.60
2022-09-10T00:26:39.687Z,1.60
2022-09-10T00:29:08.985Z,1.70
2022-09-10T00:31:36.373Z,1.60
2022-09-10T00:34:04.008Z,1.20
2022-09-10T00:36:33.213Z,1.43
2022-09-10T00:39:03.252Z,1.30
2022-09-10T00:41:30.343Z,1.30
2022-09-10T00:43:59.819Z,1.20
2022-09-10T00:46:26.323Z,1.40
2022-09-10T00:48:56.555Z,1.33
2022-09-10T00:51:24.285Z,1.40
2022-09-10T00:53:51.922Z,1.30
2022-09-10T00:56:18.515Z,1.83
2022-09-10T00:58:46.516Z,1.40
2022-09-10T01:01:13.688Z,1.70
2022-09-10T01:03:41.156Z,1.60
2022-09-10T01:06:08.020Z,1.40
2022-09-10T01:08:34.637Z,1.40
2022-09-10T01:11:10.211Z,1.40
2022-09-10T01:14:10.083Z,2.00
2022-09-10T01:17:11.079Z,2.40
2022-09-10T01:19:41.353Z,2.90
2022-09-10T01:22:08.094Z,2.70
2022-09-10T01:24:45.229Z,1.90
2022-09-10T01:27:41.267Z,1.93
2022-09-10T01:30:12.577Z,2.50
2022-09-10T01:33:10.747Z,3.13
2022-09-10T01:36:02.377Z,3.13
2022-09-10T01:38:36.937Z,2.97
2022-09-10T01:41:03.601Z,2.40
2022-09-10T01:43:30.542Z,1.90
2022-09-10T01:46:03.365Z,1.80
2022-09-10T01:48:49.515Z,1.70
2022-09-10T01:51:58.219Z,1.60
2022-09-10T01:54:46.506Z,2.10
2022-09-10T01:57:28.252Z,1.67
2022-09-10T01:59:57.283Z,2.10
2022-09-10T02:02:31.127Z,2.00
2022-09-10T02:04:58.815Z,1.70
2022-09-10T02:07:26.759Z,2.30
2022-09-10T02:09:54.965Z,1.80
2022-09-10T02:12:22.709Z,2.47
2022-09-10T02:14:55.254Z,2.73
2022-09-10T02:17:23.928Z,2.50
2022-09-10T02:19:54.288Z,2.30
2022-09-10T02:22:23.842Z,3.17
2022-09-10T02:24:51.102Z,2.40
2022-09-10T02:27:17.679Z,3.07
2022-09-10T02:29:44.356Z,2.50
2022-09-10T02:32:10.938Z,2.77
2022-09-10T02:34:37.535Z,2.10
2022-09-10T02:37:04.259Z,1.83
2022-09-10T02:39:31.231Z,1.93
2022-09-10T02:42:02.020Z,2.30
2022-09-10T02:44:28.968Z,2.17
2022-09-10T02:46:55.750Z,2.30
2022-09-10T02:49:22.394Z,3.20
2022-09-10T02:51:50.611Z,3.30
2022-09-10T02:54:19.986Z,3.20
2022-09-10T02:56:48.573Z,3.10
2022-09-10T02:59:15.107Z,2.93
2022-09-10T03:01:41.783Z,2.53
2022-09-10T03:04:08.418Z,2.33
2022-09-10T03:06:35.357Z,2.20
2022-09-10T03:09:02.244Z,2.20
2022-09-10T03:11:28.932Z,2.10
2022-09-10T03:13:55.961Z,2.00
2022-09-10T03:16:24.011Z,2.40
2022-09-10T03:18:52.119Z,1.90
2022-09-10T03:21:21.807Z,2.20
2022-09-10T03:23:51.647Z,2.70
2022-09-10T03:26:20.189Z,2.70
2022-09-10T03:28:47.170Z,2.77
2022-09-10T03:31:14.609Z,3.10
2022-09-10T03:33:41.660Z,2.93
2022-09-10T03:36:09.729Z,3.70
2022-09-10T03:38:36.408Z,3.50
2022-09-10T03:41:03.230Z,3.67
2022-09-10T03:43:29.978Z,3.93
2022-09-10T03:45:56.841Z,3.70
2022-09-10T03:48:23.536Z,3.43
2022-09-10T03:50:52.977Z,3.57
2022-09-10T03:53:20.736Z,4.10
2022-09-10T03:55:48.864Z,3.77
2022-09-10T03:58:16.191Z,4.50
2022-09-10T04:00:43.092Z,4.33
2022-09-10T04:03:11.100Z,4.23
2022-09-10T04:05:43.702Z,4.30
2022-09-10T04:08:11.223Z,3.83
2022-09-10T04:10:38.768Z,4.50
2022-09-10T04:13:05.450Z,4.87
2022-09-10T04:15:32.044Z,4.93
2022-09-10T04:17:58.673Z,5.30
2022-09-10T04:20:25.756Z,5.67
2022-09-10T04:22:52.826Z,5.87
2022-09-10T04:25:20.494Z,5.37
2022-09-10T04:27:47.361Z,5.40
2022-09-10T04:30:14.117Z,5.57
2022-09-10T04:32:40.765Z,4.80
2022-09-10T04:35:07.998Z,4.60
2022-09-10T04:37:35.110Z,4.40
2022-09-10T04:40:02.097Z,4.73
2022-09-10T04:42:28.749Z,4.83
2022-09-10T04:44:55.314Z,5.17
2022-09-10T04:47:21.893Z,5.20
2022-09-10T04:49:48.464Z,5.10
2022-09-10T04:52:17.185Z,6.60
2022-09-10T04:54:43.856Z,6.57
2022-09-10T04:57:10.584Z,7.13
2022-09-10T04:59:38.393Z,6.60
2022-09-10T05:02:06.652Z,6.77
2022-09-10T05:04:33.511Z,5.60
2022-09-10T05:07:00.075Z,5.47
2022-09-10T05:09:31.164Z,5.57
2022-09-10T05:11:58.402Z,5.70
2022-09-10T05:14:25.617Z,6.27
2022-09-10T05:16:52.487Z,6.33
2022-09-10T05:19:19.166Z,5.70
2022-09-10T05:21:45.986Z,5.37
2022-09-10T05:24:12.690Z,5.60
2022-09-10T05:26:40.094Z,6.13
2022-09-10T05:29:06.784Z,5.60
2022-09-10T05:31:35.367Z,6.30
2022-09-10T05:34:02.068Z,5.63
2022-09-10T05:36:29.288Z,6.57
2022-09-10T05:38:55.853Z,4.77
2022-09-10T05:41:23.665Z,4.93
2022-09-10T05:43:50.327Z,4.37
2022-09-10T05:46:17.220Z,4.57
2022-09-10T05:48:44.013Z,4.83
2022-09-10T05:51:10.771Z,4.67
2022-09-10T05:53:38.307Z,4.50
2022-09-10T05:56:05.919Z,5.00
2022-09-10T05:58:34.592Z,4.60
2022-09-10T06:01:01.904Z,4.50
2022-09-10T06:03:28.517Z,4.67
2022-09-10T06:05:55.807Z,4.60
2022-09-10T06:08:23.208Z,4.53
2022-09-10T06:11:01.188Z,4.63
2022-09-10T06:13:27.856Z,4.33
2022-09-10T06:15:54.518Z,4.03
2022-09-10T06:18:21.100Z,4.40
2022-09-10T06:20:48.324Z,4.47
2022-09-10T06:23:16.806Z,4.40
2022-09-10T06:25:44.592Z,4.20
2022-09-10T06:28:12.701Z,4.13
2022-09-10T06:30:39.566Z,4.33
2022-09-10T06:33:06.186Z,4.00
2022-09-10T06:35:33.397Z,4.37
2022-09-10T06:38:00.058Z,3.73
2022-09-10T06:40:29.802Z,3.97
2022-09-10T06:42:56.321Z,4.07
2022-09-10T06:45:22.883Z,3.90
2022-09-10T06:50:37.032Z,4.40
2022-09-10T06:53:03.779Z,3.70
2022-09-10T06:55:30.484Z,4.57
2022-09-10T06:57:59.763Z,3.60
2022-09-10T07:00:26.350Z,3.87
2022-09-10T07:02:53.082Z,3.80
2022-09-10T07:05:19.663Z,4.03
2022-09-10T07:07:46.450Z,3.80
2022-09-10T07:10:12.983Z,3.73
2022-09-10T07:12:39.631Z,3.97
2022-09-10T07:15:06.674Z,4.23
2022-09-10T07:17:35.932Z,4.20
2022-09-10T07:20:02.944Z,4.07
2022-09-10T07:22:29.578Z,3.97
2022-09-10T07:24:56.231Z,4.17
2022-09-10T07:27:22.829Z,4.23
2022-09-10T07:29:49.668Z,3.53
2022-09-10T07:32:16.329Z,4.07
2022-09-10T07:34:43.220Z,4.20
2022-09-10T07:37:09.974Z,4.40
2022-09-10T07:39:36.557Z,4.00
2022-09-10T07:42:03.176Z,4.10
2022-09-10T07:44:29.730Z,4.33
2022-09-10T07:46:56.314Z,4.40
2022-09-10T07:49:22.929Z,4.47
2022-09-10T07:51:59.098Z,4.43
2022-09-10T07:54:28.474Z,4.80
2022-09-10T07:56:55.184Z,4.33
2022-09-10T07:59:21.723Z,4.97
2022-09-10T08:01:48.503Z,4.70
2022-09-10T08:04:15.133Z,4.67
2022-09-10T08:06:42.054Z,4.77
2022-09-10T08:09:09.017Z,5.00
2022-09-10T08:11:35.725Z,4.47
2022-09-10T08:14:02.387Z,4.50
2022-09-10T08:16:29.224Z,4.77
2022-09-10T08:18:57.336Z,4.73
2022-09-10T08:21:29.164Z,4.37
2022-09-10T08:23:56.283Z,4.53
2022-09-10T08:26:24.407Z,4.67
2022-09-10T08:28:52.113Z,4.50
2022-09-10T08:31:18.726Z,5.10
2022-09-10T08:33:53.418Z,5.30
2022-09-10T08:36:21.935Z,5.17
2022-09-10T08:38:49.420Z,5.23
2022-09-10T08:41:28.464Z,5.30
2022-09-10T08:43:58.794Z,5.50
2022-09-10T08:46:27.851Z,5.50
2022-09-10T08:49:09.111Z,5.17
2022-09-10T08:51:46.352Z,5.17
2022-09-10T08:54:19.945Z,5.40
2022-09-10T08:56:47.757Z,5.37
2022-09-10T08:59:25.442Z,6.00
2022-09-10T09:01:56.750Z,5.73
2022-09-10T09:04:40.639Z,6.03
2022-09-10T09:07:16.027Z,6.17
2022-09-10T09:09:43.167Z,6.10
2022-09-10T09:12:33.636Z,6.70
2022-09-10T09:15:14.270Z,6.00
2022-09-10T09:17:43.986Z,6.43
2022-09-10T09:20:18.143Z,6.37
2022-09-10T09:22:51.111Z,6.33
2022-09-10T09:25:50.957Z,6.20
2022-09-10T09:28:41.850Z,6.47
2022-09-10T09:31:13.417Z,5.97
2022-09-10T09:33:41.235Z,6.73
2022-09-10T09:36:08.323Z,7.40
2022-09-10T09:38:41.386Z,6.87
2022-09-10T09:41:17.697Z,6.87
2022-09-10T09:44:05.695Z,7.17
2022-09-10T09:46:32.936Z,8.67
2022-09-10T09:49:01.007Z,10.30
2022-09-10T09:51:30.786Z,10.60
2022-09-10T09:54:25.745Z,12.20
2022-09-10T09:56:47.727Z,11.10
2022-09-10T09:59:32.107Z,13.13
2022-09-10T10:02:10.804Z,12.10
2022-09-10T10:04:41.986Z,12.20
2022-09-10T10:07:09.002Z,11.77
2022-09-10T10:09:40.587Z,10.93
2022-09-10T10:12:14.486Z,10.43
2022-09-10T10:14:42.556Z,10.70
2022-09-10T10:17:30.318Z,9.43
2022-09-10T10:19:59.199Z,9.67
2022-09-10T10:22:27.881Z,9.70
2022-09-10T10:24:54.917Z,9.30
2022-09-10T10:27:35.661Z,10.57
2022-09-10T10:30:13.480Z,10.80
2022-09-10T10:32:42.071Z,10.53
2022-09-10T10:35:08.797Z,10.87
2022-09-10T10:37:44.055Z,10.60
2022-09-10T10:40:30.380Z,10.80
2022-09-10T10:43:02.949Z,10.53
2022-09-10T10:45:42.680Z,10.10
2022-09-10T10:48:29.087Z,10.33
2022-09-10T10:51:09.892Z,9.83
2022-09-10T10:53:48.834Z,10.00
2022-09-10T10:56:27.829Z,10.30
2022-09-10T10:59:29.976Z,10.40
2022-09-10T11:02:39.427Z,10.27
2022-09-10T11:05:27.997Z,10.20
2022-09-10T11:07:54.924Z,9.93
2022-09-10T11:10:29.730Z,10.47
2022-09-10T11:13:09.566Z,10.20
2022-09-10T11:15:47.567Z,10.23
2022-09-10T11:18:36.793Z,10.13
2022-09-10T11:21:12.117Z,9.90
2022-09-10T11:24:16.798Z,10.10
2022-09-10T11:26:54.268Z,9.60
2022-09-10T11:29:40.539Z,10.20
2022-09-10T11:32:07.444Z,10.20
2022-09-10T11:34:41.329Z,9.80
2022-09-10T11:37:13.885Z,10.57
2022-09-10T11:39:45.136Z,9.70
2022-09-10T11:42:29.326Z,9.60
2022-09-10T11:45:20.202Z,10.40
2022-09-10T11:48:02.150Z,10.10
2022-09-10T11:50:51.354Z,10.03
2022-09-10T11:53:20.661Z,10.00
2022-09-10T11:56:05.175Z,11.13
2022-09-10T11:58:50.651Z,10.30
2022-09-10T12:01:45.280Z,11.23
2022-09-10T12:04:40.436Z,11.43
2022-09-10T12:07:14.540Z,12.47
2022-09-10T12:10:15.130Z,11.53
2022-09-10T12:12:42.132Z,11.50
2022-09-10T12:15:12.863Z,11.27
2022-09-10T12:17:41.742Z,10.70
2022-09-10T12:20:14.768Z,10.83
2022-09-10T12:22:42.178Z,11.33
2022-09-10T12:25:24.305Z,10.57
2022-09-10T12:28:01.708Z,10.40
2022-09-10T12:30:29.232Z,9.87
2022-09-10T12:33:00.762Z,10.30
2022-09-10T12:35:34.252Z,10.40
2022-09-10T12:38:39.938Z,10.43
2022-09-10T12:41:11.119Z,9.70
2022-09-10T12:43:40.941Z,10.23
2022-09-10T12:46:08.044Z,11.87
2022-09-10T12:48:43.856Z,11.53
2022-09-10T12:51:13.729Z,11.10
2022-09-10T12:54:03.599Z,11.10
2022-09-10T12:57:09.674Z,10.87
2022-09-10T12:59:45.476Z,10.97
2022-09-10T13:02:31.961Z,10.43
2022-09-10T13:05:06.506Z,10.80
2022-09-10T13:07:37.389Z,11.47
2022-09-10T13:10:22.060Z,11.20
2022-09-10T13:12:55.367Z,10.77
2022-09-10T13:15:25.075Z,12.00
2022-09-10T13:17:51.692Z,10.90
2022-09-10T13:20:21.234Z,12.10
2022-09-10T13:23:01.625Z,10.73
2022-09-10T13:25:34.963Z,11.43
2022-09-10T13:28:01.950Z,11.30
2022-09-10T13:30:29.143Z,11.13
2022-09-10T13:33:06.060Z,11.13
2022-09-10T13:36:10.694Z,10.87
2022-09-10T13:39:03.114Z,10.43
2022-09-10T13:41:49.333Z,13.57
2022-09-10T13:44:34.559Z,14.73
2022-09-10T13:47:09.808Z,11.30
2022-09-10T13:49:49.108Z,10.23
2022-09-10T13:52:16.848Z,9.27
2022-09-10T13:54:52.304Z,8.80
2022-09-10T13:57:32.079Z,8.87
2022-09-10T14:00:17.762Z,9.50
2022-09-10T14:02:47.578Z,9.30
2022-09-10T14:05:42.144Z,9.10
2022-09-10T14:08:20.450Z,10.23
2022-09-10T14:10:56.367Z,8.63
2022-09-10T14:13:39.179Z,10.20
2022-09-10T14:16:09.381Z,9.90
2022-09-10T14:18:45.234Z,11.00
2022-09-10T14:21:13.359Z,10.20
2022-09-10T14:23:44.224Z,10.30
2022-09-10T14:26:12.160Z,9.90
2022-09-10T14:28:55.881Z,10.67
2022-09-10T14:31:27.700Z,10.20
2022-09-10T14:33:55.980Z,9.63
2022-09-10T14:36:33.561Z,10.30
2022-09-10T14:39:16.629Z,9.40
2022-09-10T14:41:44.186Z,8.97
2022-09-10T14:44:23.124Z,9.00
2022-09-10T14:46:59.829Z,9.00
2022-09-10T14:49:31.749Z,8.83
2022-09-10T14:51:58.746Z,8.83
2022-09-10T14:54:26.651Z,8.40
2022-09-10T14:56:54.309Z,9.23
2022-09-10T14:59:27.435Z,9.33
2022-09-10T15:01:54.895Z,8.93
2022-09-10T15:04:23.842Z,8.93
2022-09-10T15:06:54.750Z,9.10
2022-09-10T15:09:22.090Z,9.17
2022-09-10T15:12:05.592Z,9.47
2022-09-10T15:14:33.480Z,8.90
2022-09-10T15:17:03.068Z,8.73
2022-09-10T15:19:29.691Z,8.77
2022-09-10T15:21:57.427Z,9.23
2022-09-10T15:24:24.565Z,9.90
2022-09-10T15:26:51.369Z,8.33
2022-09-10T15:29:18.255Z,8.40
2022-09-10T15:31:45.326Z,6.90
2022-09-10T15:34:12.585Z,6.63
2022-09-10T15:36:40.791Z,7.27
2022-09-10T15:39:08.409Z,8.37
2022-09-10T15:41:35.033Z,9.13
2022-09-10T15:44:06.050Z,9.63
2022-09-10T15:46:32.634Z,10.60
2022-09-10T15:48:59.628Z,10.60
2022-09-10T15:51:34.845Z,12.13
2022-09-10T15:54:04.900Z,12.47
2022-09-10T15:56:31.877Z,11.60
2022-09-10T15:58:58.895Z,11.33
2022-09-10T16:01:28.093Z,10.17
2022-09-10T16:03:57.022Z,11.20
2022-09-10T16:06:25.769Z,12.00
2022-09-10T16:08:57.401Z,11.37
2022-09-10T16:11:24.959Z,11.43
2022-09-10T16:13:51.597Z,13.93
2022-09-10T16:16:20.425Z,14.80
2022-09-10T16:18:47.729Z,12.70
2022-09-10T16:21:18.605Z,14.03
2022-09-10T16:23:46.812Z,14.03
2022-09-10T16:26:16.809Z,15.00
2022-09-10T16:28:56.607Z,13.90
2022-09-10T16:31:28.974Z,13.23
2022-09-10T16:33:58.696Z,12.87
2022-09-10T16:36:26.274Z,11.20
2022-09-10T16:38:56.624Z,11.77
2022-09-10T16:41:25.100Z,10.40
2022-09-10T16:43:52.540Z,11.20
2022-09-10T16:46:19.547Z,11.37
2022-09-10T16:48:46.676Z,11.10
2022-09-10T16:51:15.816Z,11.77
2022-09-10T16:53:44.428Z,11.30
2022-09-10T16:56:12.851Z,8.50
2022-09-10T16:58:41.433Z,9.07
2022-09-10T17:01:09.480Z,8.60
2022-09-10T17:03:42.255Z,8.83
2022-09-10T17:06:20.254Z,9.77
2022-09-10T17:08:47.643Z,8.80
2022-09-10T17:11:15.635Z,9.27
2022-09-10T17:13:42.812Z,9.70
2022-09-10T17:16:16.688Z,9.83
2022-09-10T17:18:44.778Z,9.97
2022-09-10T17:21:11.449Z,9.80
2022-09-10T17:23:38.070Z,9.80
2022-09-10T17:26:06.519Z,12.33
2022-09-10T17:28:33.258Z,12.03
2022-09-10T17:31:00.773Z,10.37
2022-09-10T17:33:27.956Z,9.53
2022-09-10T17:36:00.541Z,9.30
2022-09-10T17:38:28.229Z,8.67
2022-09-10T17:41:01.528Z,7.93
2022-09-10T17:43:30.155Z,8.27
2022-09-10T17:45:56.847Z,8.27
2022-09-10T17:48:27.655Z,8.03
2022-09-10T17:50:55.038Z,8.03
2022-09-10T17:53:21.722Z,8.10
2022-09-10T17:55:48.342Z,8.37
2022-09-10T17:58:16.212Z,8.23
2022-09-10T18:00:47.601Z,8.50
2022-09-10T18:03:17.731Z,8.20
2022-09-10T18:05:45.719Z,9.57
2022-09-10T18:08:12.691Z,9.93
2022-09-10T18:10:39.631Z,9.70
2022-09-10T18:13:08.352Z,10.43
2022-09-10T18:15:40.963Z,11.03
2022-09-10T18:18:09.138Z,12.97
2022-09-10T18:20:35.839Z,11.17
2022-09-10T18:23:02.623Z,9.90
2022-09-10T18:25:30.550Z,9.93
2022-09-10T18:27:57.932Z,9.13
2022-09-10T18:30:28.581Z,9.87
2022-09-10T18:32:55.400Z,9.87
2022-09-10T18:35:22.096Z,9.77
2022-09-10T18:37:50.153Z,9.87
2022-09-10T18:40:17.754Z,9.90
2022-09-10T18:42:46.738Z,9.60
2022-09-10T18:45:13.880Z,9.90
2022-09-10T18:47:44.900Z,9.13
2022-09-10T18:50:13.416Z,12.50
2022-09-10T18:52:40.225Z,9.90
2022-09-10T18:55:07.299Z,9.63
2022-09-10T18:57:33.924Z,10.60
2022-09-10T19:00:01.183Z,10.20
2022-09-10T19:02:27.808Z,11.43
2022-09-10T19:05:10.780Z,11.77
2022-09-10T19:07:38.680Z,12.20
2022-09-10T19:10:10.014Z,12.03
2022-09-10T19:12:36.578Z,13.67
2022-09-10T19:15:03.467Z,12.63
2022-09-10T19:17:30.058Z,12.07
2022-09-10T19:19:56.598Z,12.33
2022-09-10T19:22:23.218Z,12.77
2022-09-10T19:24:55.882Z,10.87
2022-09-10T19:27:28.550Z,12.80
2022-09-10T19:30:47.750Z,12.47
2022-09-10T19:32:48.077Z,12.73
2022-09-10T19:35:17.220Z,12.03
2022-09-10T19:37:43.768Z,12.90
2022-09-10T19:40:12.033Z,12.50
2022-09-10T19:42:39.704Z,12.07
2022-09-10T19:45:10.059Z,11.70
2022-09-10T19:47:36.859Z,11.07
2022-09-10T19:50:03.651Z,12.03
2022-09-10T19:52:32.757Z,11.50
2022-09-10T19:55:00.440Z,12.43
2022-09-10T19:57:27.023Z,12.77
2022-09-10T19:59:53.601Z,12.53
2022-09-10T20:02:20.235Z,12.17
2022-09-10T20:04:46.859Z,11.77
2022-09-10T20:07:13.462Z,12.13
2022-09-10T20:09:40.273Z,12.23
2022-09-10T20:12:07.048Z,11.93
2022-09-10T20:14:33.651Z,11.90
2022-09-10T20:17:01.715Z,12.30
2022-09-10T20:19:29.356Z,12.07
2022-09-10T20:21:55.928Z,12.00
2022-09-10T20:24:23.548Z,11.17
2022-09-10T20:26:50.149Z,9.63
2022-09-10T20:29:18.336Z,9.07
2022-09-10T20:31:46.368Z,9.43
2022-09-10T20:34:19.685Z,8.90
2022-09-10T20:36:47.919Z,8.07
2022-09-10T20:39:16.446Z,8.87
2022-09-10T20:41:43.827Z,9.03
2022-09-10T20:44:15.317Z,8.30
2022-09-10T20:46:42.532Z,8.10
2022-09-10T20:49:11.114Z,8.20
2022-09-10T20:51:41.656Z,8.27
2022-09-10T20:54:11.696Z,8.27
2022-09-10T20:56:38.320Z,8.17
2022-09-10T20:59:04.886Z,8.73
2022-09-10T21:01:31.657Z,8.67
2022-09-10T21:03:59.609Z,8.40
2022-09-10T21:06:28.098Z,8.83
2022-09-10T21:08:58.029Z,8.57
2022-09-10T21:11:26.925Z,8.77
2022-09-10T21:13:55.708Z,8.67
2022-09-10T21:16:32.321Z,8.63
2022-09-10T21:19:02.195Z,8.60
2022-09-10T21:21:31.151Z,8.80
2022-09-10T21:24:00.232Z,8.17
2022-09-10T21:26:29.246Z,8.00
2022-09-10T21:29:02.269Z,8.40
2022-09-10T21:31:30.016Z,8.80
2022-09-10T21:34:02.444Z,8.97
2022-09-10T21:36:31.470Z,8.87
2022-09-10T21:39:00.240Z,8.57
2022-09-10T21:41:31.779Z,9.30
2022-09-10T21:44:00.125Z,9.37
2022-09-10T21:46:27.522Z,9.17
2022-09-10T21:48:54.207Z,9.20
2022-09-10T21:51:21.325Z,8.70
2022-09-10T21:53:48.615Z,8.77
2022-09-10T21:56:16.622Z,9.23
2022-09-10T21:58:45.229Z,9.20
2022-09-10T22:01:24.313Z,8.70
2022-09-10T22:03:52.774Z,9.93
2022-09-10T22:06:23.191Z,9.27
2022-09-10T22:08:58.189Z,8.60
2022-09-10T22:11:39.394Z,9.60
2022-09-10T22:14:08.024Z,9.37
2022-09-10T22:16:35.899Z,8.80
2022-09-10T22:19:06.211Z,9.57
2022-09-10T22:21:32.881Z,9.77
2022-09-10T22:23:59.654Z,9.20
2022-09-10T22:26:28.557Z,9.67
2022-09-10T22:28:57.198Z,9.13
2022-09-10T22:31:26.657Z,9.63
2022-09-10T22:34:04.812Z,9.57
2022-09-10T22:36:34.161Z,10.30
2022-09-10T22:39:06.562Z,10.10
2022-09-10T22:41:34.896Z,9.60
2022-09-10T22:44:02.368Z,10.40
2022-09-10T22:46:29.596Z,9.70
2022-09-10T22:48:56.518Z,9.67
2022-09-10T22:51:29.108Z,10.13
2022-09-10T22:53:56.857Z,9.63
2022-09-10T22:56:26.295Z,10.30
2022-09-10T22:58:53.974Z,9.87
2022-09-10T23:01:23.078Z,10.30
2022-09-10T23:03:50.282Z,10.43
2022-09-10T23:06:22.484Z,10.03
2022-09-10T23:08:51.736Z,10.50
2022-09-10T23:11:26.913Z,10.70
2022-09-10T23:13:57.492Z,10.00
2022-09-10T23:16:30.067Z,10.50
2022-09-10T23:18:58.324Z,10.53
2022-09-10T23:21:26.267Z,10.87
2022-09-10T23:23:58.229Z,10.90
2022-09-10T23:26:25.608Z,11.13
2022-09-10T23:28:52.707Z,11.23
2022-09-10T23:31:21.827Z,11.03
2022-09-10T23:33:53.642Z,11.50
2022-09-10T23:36:20.626Z,11.30
2022-09-10T23:38:47.447Z,11.67
2022-09-10T23:41:16.044Z,10.83
2022-09-10T23:43:43.813Z,11.27
2022-09-10T23:46:10.997Z,12.10
2022-09-10T23:48:38.023Z,12.10
2022-09-10T23:51:06.373Z,11.37
2022-09-10T23:53:35.732Z,11.40
2022-09-10T23:56:02.951Z,12.03
2022-09-10T23:58:30.022Z,11.97
